createdAt,value
2023-03-21T00:00:48.456Z,7.70
2023-03-21T00:03:16.605Z,7.70
2023-03-21T00:05:52.070Z,7.70
2023-03-21T00:08:25.154Z,7.70
2023-03-21T00:11:02.433Z,7.70
2023-03-21T00:13:34.453Z,7.70
2023-03-21T00:16:15.043Z,7.60
2023-03-21T00:18:52.719Z,7.60
2023-03-21T00:24:16.005Z,7.60
2023-03-21T00:26:43.482Z,7.60
2023-03-21T00:29:11.090Z,7.60
2023-03-21T00:31:38.599Z,7.60
2023-03-21T00:34:06.118Z,7.70
2023-03-21T00:36:33.578Z,7.80
2023-03-21T00:39:01.250Z,7.90
2023-03-21T00:41:42.161Z,7.90
2023-03-21T00:44:16.031Z,8.00
2023-03-21T00:46:54.527Z,8.00
2023-03-21T00:49:34.589Z,8.00
2023-03-21T00:52:30.587Z,8.10
2023-03-21T00:54:51.518Z,8.00
2023-03-21T00:57:22.003Z,8.00
2023-03-21T00:59:52.020Z,8.00
2023-03-21T01:02:23.106Z,8.10
2023-03-21T01:04:50.823Z,8.10
2023-03-21T01:07:18.263Z,8.10
2023-03-21T01:09:45.855Z,8.10
2023-03-21T01:12:13.372Z,8.10
2023-03-21T01:14:40.959Z,8.10
2023-03-21T01:17:08.528Z,8.00
2023-03-21T01:19:50.749Z,8.00
2023-03-21T01:22:19.786Z,8.00
2023-03-21T01:24:54.147Z,8.00
2023-03-21T01:27:24.457Z,7.90
2023-03-21T01:29:51.926Z,7.90
2023-03-21T01:32:19.488Z,8.00
2023-03-21T01:34:46.995Z,7.90
2023-03-21T01:37:14.885Z,7.90
2023-03-21T01:39:42.455Z,7.90
2023-03-21T01:42:14.068Z,7.80
2023-03-21T01:45:05.505Z,7.90
2023-03-21T01:47:33.049Z,7.80
2023-03-21T01:50:03.079Z,7.90
2023-03-21T01:52:38.862Z,7.80
2023-03-21T01:55:13.668Z,7.90
2023-03-21T01:58:03.997Z,7.90
2023-03-21T02:00:34.283Z,7.90
2023-03-21T02:03:15.138Z,7.90
2023-03-21T02:06:06.883Z,7.80
2023-03-21T02:08:39.470Z,7.80
2023-03-21T02:11:10.307Z,7.70
2023-03-21T02:13:38.337Z,7.70
2023-03-21T02:16:47.655Z,7.70
2023-03-21T02:19:32.783Z,7.70
2023-03-21T02:22:23.743Z,7.80
2023-03-21T02:25:21.866Z,7.80
2023-03-21T02:28:12.892Z,7.70
2023-03-21T02:31:06.799Z,7.70
2023-03-21T02:34:15.686Z,7.70
2023-03-21T02:37:10.302Z,7.70
2023-03-21T02:39:42.198Z,7.70
2023-03-21T02:42:59.402Z,7.70
2023-03-21T02:45:41.712Z,7.70
2023-03-21T02:48:27.681Z,7.70
2023-03-21T02:51:01.268Z,7.80
2023-03-21T02:53:39.476Z,7.90
2023-03-21T02:56:10.900Z,7.90
2023-03-21T02:58:40.787Z,7.90
2023-03-21T03:01:09.444Z,7.80
2023-03-21T03:03:39.760Z,7.80
2023-03-21T03:06:24.752Z,7.80
2023-03-21T03:09:23.108Z,7.70
2023-03-21T03:12:04.867Z,7.70
2023-03-21T03:15:18.066Z,7.70
2023-03-21T03:18:21.582Z,7.70
2023-03-21T03:21:14.702Z,7.80
2023-03-21T03:23:47.370Z,7.70
2023-03-21T03:26:37.289Z,7.70
2023-03-21T03:29:16.846Z,7.60
2023-03-21T03:31:54.406Z,7.60
2023-03-21T03:34:27.780Z,7.50
2023-03-21T03:36:59.514Z,7.50
2023-03-21T03:39:47.023Z,7.50
2023-03-21T03:42:44.390Z,7.50
2023-03-21T03:45:12.505Z,7.50
2023-03-21T03:48:18.405Z,7.40
2023-03-21T03:51:02.718Z,7.40
2023-03-21T03:53:38.717Z,7.40
2023-03-21T03:56:09.959Z,7.40
2023-03-21T03:58:45.301Z,7.40
2023-03-21T04:01:14.352Z,7.30
2023-03-21T04:03:50.659Z,7.30
2023-03-21T04:06:20.076Z,7.30
2023-03-21T04:08:48.058Z,7.30
2023-03-21T04:11:16.631Z,7.30
2023-03-21T04:13:44.090Z,7.30
2023-03-21T04:16:13.150Z,7.30
2023-03-21T04:18:42.101Z,7.40
2023-03-21T04:21:13.071Z,7.40
2023-03-21T04:23:41.537Z,7.40
2023-03-21T04:26:09.702Z,7.40
2023-03-21T04:28:37.522Z,7.40
2023-03-21T04:31:25.080Z,7.40
2023-03-21T04:33:53.593Z,7.30
2023-03-21T04:36:30.836Z,7.30
2023-03-21T04:39:01.736Z,7.40
2023-03-21T04:41:30.171Z,7.30
2023-03-21T04:43:57.665Z,7.30
2023-03-21T04:46:25.528Z,7.30
2023-03-21T04:48:53.051Z,7.30
2023-03-21T04:51:20.480Z,7.40
2023-03-21T04:53:49.544Z,7.30
2023-03-21T04:56:17.209Z,7.30
2023-03-21T04:58:45.592Z,7.30
2023-03-21T05:01:14.704Z,7.40
2023-03-21T05:03:42.305Z,7.40
2023-03-21T05:06:10.951Z,7.30
2023-03-21T05:08:38.599Z,7.30
2023-03-21T05:11:06.464Z,7.30
2023-03-21T05:13:33.934Z,7.40
2023-03-21T05:16:01.410Z,7.30
2023-03-21T05:18:30.660Z,7.40
2023-03-21T05:20:58.139Z,7.40
2023-03-21T05:23:25.901Z,7.30
2023-03-21T05:25:54.103Z,7.40
2023-03-21T05:28:21.527Z,7.30
2023-03-21T05:30:49.129Z,7.30
2023-03-21T05:33:16.703Z,7.30
2023-03-21T05:35:44.136Z,7.30
2023-03-21T05:38:11.659Z,7.40
2023-03-21T05:40:39.142Z,7.30
2023-03-21T05:43:06.615Z,7.40
2023-03-21T05:45:34.041Z,7.50
2023-03-21T05:48:01.582Z,7.60
2023-03-21T05:50:29.713Z,7.60
2023-03-21T05:52:57.233Z,7.60
2023-03-21T05:55:25.227Z,7.60
2023-03-21T05:57:52.781Z,7.70
2023-03-21T06:00:22.318Z,7.70
2023-03-21T06:02:49.883Z,7.70
2023-03-21T06:05:17.549Z,7.80
2023-03-21T06:07:45.050Z,7.80
2023-03-21T06:10:12.616Z,7.80
2023-03-21T06:12:40.086Z,7.80
2023-03-21T06:15:09.105Z,7.80
2023-03-21T06:17:36.614Z,7.80
2023-03-21T06:20:07.198Z,7.80
2023-03-21T06:22:35.900Z,7.80
2023-03-21T06:25:05.597Z,7.80
2023-03-21T06:27:33.724Z,7.90
2023-03-21T06:30:01.330Z,7.70
2023-03-21T06:32:29.093Z,7.80
2023-03-21T06:34:56.565Z,7.80
2023-03-21T06:37:24.603Z,7.80
2023-03-21T06:39:53.245Z,7.70
2023-03-21T06:42:22.077Z,7.70
2023-03-21T06:44:49.612Z,7.70
2023-03-21T06:47:17.077Z,7.80
2023-03-21T06:49:44.859Z,7.90
2023-03-21T06:52:12.886Z,8.00
2023-03-21T06:54:40.571Z,8.20
2023-03-21T06:57:07.990Z,8.40
2023-03-21T06:59:36.391Z,8.40
2023-03-21T07:02:03.954Z,8.50
2023-03-21T07:04:31.374Z,8.70
2023-03-21T07:06:58.807Z,8.80
2023-03-21T07:09:28.301Z,8.80
2023-03-21T07:11:55.988Z,8.90
2023-03-21T07:14:24.105Z,8.80
2023-03-21T07:16:51.692Z,8.80
2023-03-21T07:19:19.287Z,8.80
2023-03-21T07:21:46.780Z,9.00
2023-03-21T07:24:14.312Z,9.20
2023-03-21T07:26:41.799Z,9.40
2023-03-21T07:29:09.330Z,9.50
2023-03-21T07:31:37.749Z,9.60
2023-03-21T07:34:05.205Z,9.20
2023-03-21T07:36:32.698Z,9.30
2023-03-21T07:39:00.342Z,9.30
2023-03-21T07:41:27.805Z,9.50
2023-03-21T07:43:55.272Z,9.30
2023-03-21T07:46:22.800Z,9.20
2023-03-21T07:48:50.456Z,9.30
2023-03-21T07:51:17.953Z,9.50
2023-03-21T07:53:48.782Z,9.50
2023-03-21T07:56:16.425Z,9.50
2023-03-21T07:58:43.987Z,9.30
2023-03-21T08:01:11.435Z,9.30
2023-03-21T08:03:38.952Z,9.30
2023-03-21T08:06:07.079Z,9.40
2023-03-21T08:08:34.616Z,9.30
2023-03-21T08:11:02.125Z,9.40
2023-03-21T08:13:29.752Z,9.30
2023-03-21T08:15:57.670Z,9.30
2023-03-21T08:18:26.370Z,9.50
2023-03-21T08:20:56.369Z,9.50
2023-03-21T08:23:25.215Z,9.40
2023-03-21T08:25:57.017Z,9.40
2023-03-21T08:28:24.905Z,9.30
2023-03-21T08:30:52.461Z,9.10
2023-03-21T08:33:21.220Z,9.30
2023-03-21T08:35:48.815Z,9.50
2023-03-21T08:38:17.185Z,9.80
2023-03-21T08:40:44.867Z,9.90
2023-03-21T08:43:14.610Z,9.90
2023-03-21T08:45:42.314Z,9.60
2023-03-21T08:48:09.813Z,9.60
2023-03-21T08:50:37.614Z,9.40
2023-03-21T08:53:05.062Z,9.30
2023-03-21T08:55:33.368Z,9.00
2023-03-21T08:58:01.238Z,9.00
2023-03-21T09:00:29.186Z,9.00
2023-03-21T09:02:58.997Z,9.20
2023-03-21T09:05:27.336Z,9.00
2023-03-21T09:07:54.896Z,9.20
2023-03-21T09:10:24.488Z,9.40
2023-03-21T09:12:54.858Z,9.70
2023-03-21T09:15:25.374Z,9.80
2023-03-21T09:17:54.801Z,9.90
2023-03-21T09:20:33.155Z,9.70
2023-03-21T09:23:02.061Z,9.60
2023-03-21T09:25:32.740Z,9.60
2023-03-21T09:28:05.504Z,9.70
2023-03-21T09:30:35.756Z,9.80
2023-03-21T09:33:09.042Z,9.80
2023-03-21T09:35:37.147Z,10.00
2023-03-21T09:38:06.147Z,10.30
2023-03-21T09:41:28.093Z,10.80
2023-03-21T09:44:24.849Z,10.60
2023-03-21T09:46:55.630Z,10.40
2023-03-21T09:49:31.272Z,10.10
2023-03-21T09:52:12.588Z,10.10
2023-03-21T09:54:46.062Z,10.10
2023-03-21T09:57:36.618Z,10.30
2023-03-21T10:00:23.354Z,10.80
2023-03-21T10:02:57.312Z,11.10
2023-03-21T10:05:28.767Z,11.50
2023-03-21T10:08:04.810Z,11.80
2023-03-21T10:10:38.616Z,11.70
2023-03-21T10:13:16.051Z,11.70
2023-03-21T10:15:44.071Z,11.40
2023-03-21T10:18:22.539Z,11.70
2023-03-21T10:20:52.015Z,11.90
2023-03-21T10:23:27.115Z,12.20
2023-03-21T10:26:02.365Z,12.40
2023-03-21T10:28:52.127Z,12.00
2023-03-21T10:31:26.308Z,11.70
2023-03-21T10:33:58.210Z,11.40
2023-03-21T10:36:30.297Z,11.60
2023-03-21T10:39:07.666Z,11.10
2023-03-21T10:41:36.218Z,10.40
2023-03-21T10:44:15.592Z,10.20
2023-03-21T10:46:59.503Z,10.10
2023-03-21T10:49:31.418Z,10.00
2023-03-21T10:52:11.479Z,10.00
2023-03-21T10:54:39.044Z,10.00
2023-03-21T10:57:12.108Z,10.20
2023-03-21T10:59:41.645Z,10.40
2023-03-21T11:02:21.172Z,10.60
2023-03-21T11:04:49.251Z,10.90
2023-03-21T11:07:19.497Z,11.20
2023-03-21T11:09:59.625Z,11.30
2023-03-21T11:12:37.446Z,11.30
2023-03-21T11:15:37.811Z,11.10
2023-03-21T11:18:25.461Z,11.10
2023-03-21T11:21:06.092Z,11.10
2023-03-21T11:23:41.159Z,11.00
2023-03-21T11:26:30.538Z,11.30
2023-03-21T11:28:58.660Z,11.30
2023-03-21T11:31:46.710Z,11.20
2023-03-21T11:34:28.401Z,10.60
2023-03-21T11:37:03.068Z,10.50
2023-03-21T11:39:37.802Z,10.30
2023-03-21T11:42:07.160Z,10.10
2023-03-21T11:44:43.850Z,9.80
2023-03-21T11:47:12.553Z,9.70
2023-03-21T11:49:40.025Z,9.60
2023-03-21T11:52:26.292Z,9.80
2023-03-21T11:55:31.843Z,9.80
2023-03-21T11:58:14.584Z,9.80
2023-03-21T12:01:21.407Z,9.60
2023-03-21T12:04:21.045Z,9.70
2023-03-21T12:06:59.043Z,9.70
2023-03-21T12:09:36.918Z,10.10
2023-03-21T12:12:38.030Z,10.10
2023-03-21T12:15:37.628Z,10.10
2023-03-21T12:18:29.542Z,10.40
2023-03-21T12:21:22.808Z,10.50
2023-03-21T12:24:05.020Z,10.50
2023-03-21T12:26:44.245Z,10.60
2023-03-21T12:29:26.478Z,10.90
2023-03-21T12:33:00.557Z,11.10
2023-03-21T12:35:58.242Z,10.80
2023-03-21T12:38:41.243Z,10.70
2023-03-21T12:41:27.951Z,10.70
2023-03-21T12:44:11.932Z,10.90
2023-03-21T12:46:54.757Z,11.10
2023-03-21T12:49:48.703Z,11.20
2023-03-21T12:52:26.408Z,11.40
2023-03-21T12:55:04.526Z,11.90
2023-03-21T12:57:51.051Z,11.80
2023-03-21T13:00:45.055Z,12.20
2023-03-21T13:03:27.633Z,12.60
2023-03-21T13:06:04.853Z,13.40
2023-03-21T13:09:03.914Z,13.70
2023-03-21T13:11:32.575Z,14.00
2023-03-21T13:14:16.543Z,13.50
2023-03-21T13:16:52.695Z,13.00
2023-03-21T13:19:23.008Z,13.30
2023-03-21T13:22:22.203Z,13.10
2023-03-21T13:25:00.165Z,13.10
2023-03-21T13:27:39.690Z,13.20
2023-03-21T13:30:22.542Z,12.60
2023-03-21T13:32:56.194Z,12.00
2023-03-21T13:35:41.659Z,11.90
2023-03-21T13:38:29.341Z,11.60
2023-03-21T13:41:14.158Z,11.30
2023-03-21T13:44:03.188Z,11.30
2023-03-21T13:46:35.879Z,11.30
2023-03-21T13:49:08.732Z,10.90
2023-03-21T13:51:51.916Z,10.70
2023-03-21T13:54:35.076Z,10.70
2023-03-21T13:57:06.537Z,10.80
2023-03-21T13:59:43.650Z,10.80
2023-03-21T14:02:57.468Z,10.60
2023-03-21T14:05:27.416Z,10.70
2023-03-21T14:08:15.565Z,10.70
2023-03-21T14:10:52.932Z,11.00
2023-03-21T14:13:23.549Z,11.20
2023-03-21T14:16:21.908Z,11.30
2023-03-21T14:19:00.757Z,11.40
2023-03-21T14:21:33.097Z,11.50
2023-03-21T14:24:08.185Z,11.60
2023-03-21T14:26:45.711Z,11.70
2023-03-21T14:29:40.025Z,11.80
2023-03-21T14:32:19.470Z,12.00
2023-03-21T14:34:49.174Z,12.40
2023-03-21T14:37:38.194Z,13.20
2023-03-21T14:40:27.364Z,14.40
2023-03-21T14:42:56.293Z,15.40
2023-03-21T14:45:27.690Z,15.30
2023-03-21T14:48:16.705Z,14.80
2023-03-21T14:50:56.794Z,14.00
2023-03-21T14:53:29.212Z,13.40
2023-03-21T14:56:22.385Z,12.90
2023-03-21T14:58:50.527Z,12.80
2023-03-21T15:01:35.280Z,13.10
2023-03-21T15:04:07.831Z,12.90
2023-03-21T15:06:49.415Z,12.60
2023-03-21T15:09:19.403Z,12.40
2023-03-21T15:11:52.396Z,12.20
2023-03-21T15:14:34.061Z,12.30
2023-03-21T15:17:04.849Z,12.30
2023-03-21T15:19:36.827Z,12.30
2023-03-21T15:22:23.202Z,12.40
2023-03-21T15:24:54.923Z,12.20
2023-03-21T15:27:25.706Z,12.30
2023-03-21T15:29:54.990Z,12.60
2023-03-21T15:32:26.507Z,12.60
2023-03-21T15:35:15.856Z,12.70
2023-03-21T15:37:43.721Z,12.70
2023-03-21T15:40:23.862Z,12.60
2023-03-21T15:42:51.972Z,12.20
2023-03-21T15:45:25.286Z,12.10
2023-03-21T15:47:59.788Z,12.00
2023-03-21T15:50:47.279Z,11.80
2023-03-21T15:53:18.527Z,11.60
2023-03-21T15:55:57.405Z,11.60
2023-03-21T15:58:28.696Z,11.80
2023-03-21T16:01:02.577Z,11.80
2023-03-21T16:03:40.726Z,11.70
2023-03-21T16:06:36.850Z,11.50
2023-03-21T16:09:22.376Z,11.40
2023-03-21T16:11:59.183Z,11.10
2023-03-21T16:14:28.105Z,11.00
2023-03-21T16:16:57.615Z,10.80
2023-03-21T16:19:25.153Z,10.60
2023-03-21T16:21:53.549Z,10.60
2023-03-21T16:24:21.002Z,10.50
2023-03-21T16:26:52.381Z,10.40
2023-03-21T16:29:20.648Z,10.30
2023-03-21T16:31:50.095Z,10.30
2023-03-21T16:34:17.677Z,10.30
2023-03-21T16:36:45.228Z,10.30
2023-03-21T16:39:26.467Z,10.30
2023-03-21T16:41:54.143Z,10.20
2023-03-21T16:44:21.889Z,10.20
2023-03-21T16:46:49.756Z,10.20
2023-03-21T16:49:27.217Z,10.20
2023-03-21T16:51:57.500Z,10.10
2023-03-21T16:54:25.040Z,10.00
2023-03-21T16:56:55.484Z,10.00
2023-03-21T16:59:23.141Z,10.00
2023-03-21T17:01:51.345Z,10.00
2023-03-21T17:04:19.334Z,9.90
2023-03-21T17:06:53.073Z,9.90
2023-03-21T17:09:24.369Z,9.80
2023-03-21T17:11:52.061Z,9.80
2023-03-21T17:14:21.679Z,9.90
2023-03-21T17:16:49.839Z,9.80
2023-03-21T17:19:24.109Z,9.70
2023-03-21T17:21:51.647Z,9.60
2023-03-21T17:24:19.090Z,9.50
2023-03-21T17:26:46.866Z,9.40
2023-03-21T17:29:15.892Z,9.50
2023-03-21T17:31:47.498Z,9.60
2023-03-21T17:34:16.017Z,9.60
2023-03-21T17:36:46.953Z,9.50
2023-03-21T17:39:26.802Z,9.50
2023-03-21T17:41:55.291Z,9.50
2023-03-21T17:44:22.812Z,9.50
2023-03-21T17:46:51.943Z,9.40
2023-03-21T17:49:21.390Z,9.30
2023-03-21T17:51:48.997Z,9.30
2023-03-21T17:54:16.526Z,9.20
2023-03-21T17:56:44.371Z,9.20
2023-03-21T17:59:14.216Z,9.30
2023-03-21T18:01:42.898Z,9.40
2023-03-21T18:04:11.227Z,9.40
2023-03-21T18:06:39.138Z,9.40
2023-03-21T18:09:11.719Z,9.40
2023-03-21T18:11:40.440Z,9.50
2023-03-21T18:14:16.499Z,9.50
2023-03-21T18:16:47.064Z,9.50
2023-03-21T18:19:14.928Z,9.50
2023-03-21T18:21:45.769Z,9.50
2023-03-21T18:24:14.853Z,9.50
2023-03-21T18:26:44.175Z,9.50
2023-03-21T18:30:15.792Z,9.40
2023-03-21T18:32:08.192Z,9.40
2023-03-21T18:34:38.998Z,9.40
2023-03-21T18:37:08.835Z,9.30
2023-03-21T18:39:38.236Z,9.30
2023-03-21T18:42:06.958Z,9.30
2023-03-21T18:44:39.048Z,9.40
2023-03-21T18:47:09.932Z,9.30
2023-03-21T18:52:27.490Z,9.20
2023-03-21T18:54:55.071Z,9.20
2023-03-21T18:57:39.184Z,9.20
2023-03-21T19:00:14.705Z,9.20
2023-03-21T19:02:48.024Z,9.10
2023-03-21T19:05:22.763Z,9.10
2023-03-21T19:07:51.764Z,9.10
2023-03-21T19:10:22.016Z,9.00
2023-03-21T19:12:52.668Z,8.90
2023-03-21T19:15:22.110Z,8.90
2023-03-21T19:18:37.161Z,8.90
2023-03-21T19:20:45.053Z,8.90
2023-03-21T19:23:12.805Z,9.00
2023-03-21T19:25:40.547Z,9.00
2023-03-21T19:28:09.929Z,9.00
2023-03-21T19:30:37.849Z,9.10
2023-03-21T19:33:06.561Z,9.10
2023-03-21T19:35:37.347Z,9.10
2023-03-21T19:38:05.124Z,9.10
2023-03-21T19:40:32.708Z,9.10
2023-03-21T19:43:14.355Z,9.10
2023-03-21T19:45:48.872Z,9.10
2023-03-21T19:48:17.168Z,9.00
2023-03-21T19:51:13.842Z,9.00
2023-03-21T19:53:34.201Z,9.00
2023-03-21T19:56:03.875Z,8.90
2023-03-21T19:58:34.917Z,8.90
2023-03-21T20:01:02.364Z,8.80
2023-03-21T20:03:30.000Z,8.70
2023-03-21T20:06:09.339Z,8.60
2023-03-21T20:09:05.752Z,8.60
2023-03-21T20:11:25.437Z,8.50
2023-03-21T20:13:52.988Z,8.40
2023-03-21T20:16:20.735Z,8.30
2023-03-21T20:18:48.300Z,8.20
2023-03-21T20:21:18.441Z,8.00
2023-03-21T20:23:51.456Z,7.90
2023-03-21T20:26:19.237Z,7.80
2023-03-21T20:28:56.622Z,7.80
2023-03-21T20:31:31.956Z,7.80
2023-03-21T20:33:59.589Z,7.70
2023-03-21T20:36:43.919Z,7.80
2023-03-21T20:39:12.310Z,7.80
2023-03-21T20:41:39.897Z,7.90
2023-03-21T20:44:39.577Z,8.00
2023-03-21T20:46:56.881Z,8.00
2023-03-21T20:49:25.105Z,7.90
2023-03-21T20:54:42.690Z,7.90
2023-03-21T20:57:10.403Z,7.90
2023-03-21T20:59:38.638Z,8.00
2023-03-21T21:02:06.140Z,8.10
2023-03-21T21:07:23.071Z,8.00
2023-03-21T21:09:50.662Z,8.20
2023-03-21T21:12:19.610Z,8.20
2023-03-21T21:14:48.369Z,8.10
2023-03-21T21:17:35.202Z,8.10
2023-03-21T21:20:25.872Z,8.10
2023-03-21T21:22:59.498Z,8.20
2023-03-21T21:25:29.485Z,8.20
2023-03-21T21:27:57.107Z,8.10
2023-03-21T21:30:24.978Z,8.00
2023-03-21T21:32:52.519Z,8.00
2023-03-21T21:35:20.778Z,8.00
2023-03-21T21:37:49.071Z,7.90
2023-03-21T21:40:20.648Z,8.00
2023-03-21T21:42:48.503Z,8.00
2023-03-21T21:45:16.243Z,7.90
2023-03-21T21:47:46.564Z,7.90
2023-03-21T21:50:14.540Z,7.90
2023-03-21T21:52:43.943Z,8.00
2023-03-21T21:55:13.352Z,8.00
2023-03-21T21:57:43.679Z,8.00
2023-03-21T22:00:13.814Z,8.10
2023-03-21T22:03:47.609Z,8.10
2023-03-21T22:06:16.236Z,8.00
2023-03-21T22:08:47.233Z,7.90
2023-03-21T22:11:16.118Z,7.80
2023-03-21T22:13:43.887Z,7.80
2023-03-21T22:16:12.298Z,7.90
2023-03-21T22:18:39.826Z,7.90
2023-03-21T22:21:07.721Z,7.90
2023-03-21T22:23:35.450Z,7.90
2023-03-21T22:26:03.048Z,7.90
2023-03-21T22:28:31.317Z,7.90
2023-03-21T22:30:58.833Z,7.90
2023-03-21T22:33:27.501Z,7.90
2023-03-21T22:35:54.979Z,7.90
2023-03-21T22:38:24.384Z,7.90
2023-03-21T22:40:56.148Z,8.00
2023-03-21T22:43:24.308Z,7.90
2023-03-21T22:45:52.880Z,8.00
2023-03-21T22:48:22.143Z,8.00
2023-03-21T22:50:49.839Z,8.00
2023-03-21T22:53:17.288Z,8.10
2023-03-21T22:55:44.786Z,8.00
2023-03-21T22:58:12.236Z,8.00
2023-03-21T23:00:39.887Z,8.00
2023-03-21T23:03:07.598Z,8.00
2023-03-21T23:05:42.312Z,8.00
2023-03-21T23:08:10.146Z,8.00
2023-03-21T23:10:39.833Z,8.00
2023-03-21T23:13:07.615Z,8.00
2023-03-21T23:15:35.283Z,8.00
2023-03-21T23:18:02.857Z,8.00
2023-03-21T23:20:30.788Z,8.10
2023-03-21T23:22:58.882Z,8.10
2023-03-21T23:25:29.175Z,8.10
2023-03-21T23:27:56.608Z,8.10
2023-03-21T23:30:24.421Z,8.10
2023-03-21T23:32:52.528Z,8.10
2023-03-21T23:35:20.171Z,8.10
2023-03-21T23:37:52.878Z,8.10
2023-03-21T23:40:21.425Z,8.10
2023-03-21T23:42:48.908Z,8.10
2023-03-21T23:45:16.535Z,8.10
2023-03-21T23:47:44.274Z,8.10
2023-03-21T23:50:12.083Z,8.10
2023-03-21T23:52:41.745Z,8.10
2023-03-21T23:55:09.995Z,8.10
2023-03-21T23:57:41.957Z,8.10
